createdAt,value
2019-05-21T00:00:13.367Z,16.60
2019-05-21T00:02:42.770Z,17.07
2019-05-21T00:05:12.582Z,15.80
2019-05-21T00:07:41.967Z,16.03
2019-05-21T00:10:12.107Z,13.93
2019-05-21T00:12:41.509Z,14.13
2019-05-21T00:15:11.389Z,12.37
2019-05-21T00:17:40.716Z,14.93
2019-05-21T00:20:10.637Z,14.27
2019-05-21T00:22:40.059Z,13.10
2019-05-21T00:25:10.418Z,12.23
2019-05-21T00:27:39.870Z,13.77
2019-05-21T00:31:04.088Z,12.40
2019-05-21T00:34:41.786Z,13.67
2019-05-21T00:37:54.233Z,12.57
2019-05-21T00:41:18.350Z,12.97
2019-05-21T00:43:55.023Z,13.60
2019-05-21T00:46:24.417Z,11.93
2019-05-21T00:48:54.367Z,13.80
2019-05-21T00:51:23.762Z,12.77
2019-05-21T00:53:53.146Z,12.23
2019-05-21T00:56:22.552Z,13.37
2019-05-21T00:58:51.964Z,14.53
2019-05-21T01:01:21.352Z,13.93
2019-05-21T01:03:50.730Z,15.73
2019-05-21T01:06:20.204Z,16.47
2019-05-21T01:08:49.672Z,16.00
2019-05-21T01:11:19.062Z,16.23
2019-05-21T01:13:48.465Z,15.43
2019-05-21T01:16:17.849Z,18.17
2019-05-21T01:18:47.702Z,13.97
2019-05-21T01:21:17.234Z,14.57
2019-05-21T01:23:46.614Z,15.00
2019-05-21T01:26:16.042Z,13.93
2019-05-21T01:28:45.424Z,15.47
2019-05-21T01:31:14.815Z,15.30
2019-05-21T01:33:44.211Z,15.93
2019-05-21T01:36:13.652Z,15.90
2019-05-21T01:38:43.055Z,16.00
2019-05-21T01:41:12.444Z,17.53
2019-05-21T01:43:41.973Z,18.07
2019-05-21T01:46:11.353Z,18.43
2019-05-21T01:48:40.735Z,19.53
2019-05-21T01:51:10.858Z,20.20
2019-05-21T01:53:41.433Z,19.63
2019-05-21T01:56:10.839Z,17.20
2019-05-21T01:58:40.289Z,22.10
2019-05-21T02:01:09.676Z,17.80
2019-05-21T02:03:39.062Z,18.87
2019-05-21T02:06:08.612Z,19.50
2019-05-21T02:08:38.020Z,18.33
2019-05-21T02:11:07.471Z,16.80
2019-05-21T02:13:36.870Z,17.57
2019-05-21T02:16:06.323Z,15.70
2019-05-21T02:18:35.704Z,16.33
2019-05-21T02:21:05.270Z,14.13
2019-05-21T02:23:34.655Z,15.20
2019-05-21T02:26:04.516Z,15.57
2019-05-21T02:28:33.897Z,16.90
2019-05-21T02:31:03.293Z,13.03
2019-05-21T02:33:32.688Z,14.03
2019-05-21T02:36:02.161Z,10.83
2019-05-21T02:38:31.545Z,11.70
2019-05-21T02:41:00.998Z,14.07
2019-05-21T02:43:30.452Z,13.40
2019-05-21T02:45:59.903Z,12.40
2019-05-21T02:48:29.311Z,11.70
2019-05-21T02:50:58.715Z,12.87
2019-05-21T02:53:28.085Z,13.87
2019-05-21T02:55:57.469Z,15.40
2019-05-21T02:58:26.851Z,13.20
2019-05-21T03:00:57.874Z,13.77
2019-05-21T03:03:31.987Z,15.03
2019-05-21T03:06:13.088Z,13.40
2019-05-21T03:08:32.569Z,13.77
2019-05-21T03:11:02.019Z,15.17
2019-05-21T03:13:31.397Z,13.50
2019-05-21T03:16:00.783Z,12.67
2019-05-21T03:18:30.164Z,15.43
2019-05-21T03:20:59.549Z,14.10
2019-05-21T03:23:28.929Z,13.83
2019-05-21T03:25:58.328Z,12.47
2019-05-21T03:28:27.709Z,13.30
2019-05-21T03:30:57.094Z,13.53
2019-05-21T03:33:26.475Z,12.97
2019-05-21T03:35:55.894Z,12.80
2019-05-21T03:38:25.269Z,15.10
2019-05-21T03:40:54.660Z,12.23
2019-05-21T03:43:24.437Z,13.70
2019-05-21T03:45:53.850Z,12.27
2019-05-21T03:48:23.232Z,13.90
2019-05-21T03:50:52.609Z,14.93
2019-05-21T03:53:22.092Z,14.57
2019-05-21T03:55:51.555Z,15.03
2019-05-21T03:58:20.943Z,15.53
2019-05-21T04:00:51.974Z,14.60
2019-05-21T04:03:21.286Z,16.10
2019-05-21T04:05:50.658Z,15.40
2019-05-21T04:08:20.804Z,14.97
2019-05-21T04:10:51.841Z,12.03
2019-05-21T04:13:21.141Z,13.50
2019-05-21T04:15:52.164Z,13.40
2019-05-21T04:18:29.628Z,12.37
2019-05-21T04:20:59.012Z,12.53
2019-05-21T04:23:28.396Z,13.17
2019-05-21T04:25:57.785Z,13.53
2019-05-21T04:28:27.163Z,14.33
2019-05-21T04:30:56.552Z,14.53
2019-05-21T04:33:25.935Z,13.73
2019-05-21T04:35:55.535Z,15.30
2019-05-21T04:38:24.927Z,14.93
2019-05-21T04:40:54.308Z,14.23
2019-05-21T04:43:23.757Z,13.43
2019-05-21T04:45:53.134Z,12.63
2019-05-21T04:48:22.520Z,12.83
2019-05-21T04:50:51.899Z,12.77
2019-05-21T04:53:21.285Z,12.50
2019-05-21T04:55:50.686Z,12.67
2019-05-21T04:58:20.065Z,13.60
2019-05-21T05:00:49.432Z,13.70
2019-05-21T05:03:18.819Z,14.03
2019-05-21T05:05:48.196Z,13.07
2019-05-21T05:08:17.582Z,13.07
2019-05-21T05:10:49.257Z,13.00
2019-05-21T05:13:18.072Z,12.37
2019-05-21T05:15:47.461Z,13.23
2019-05-21T05:18:16.846Z,13.07
2019-05-21T05:20:46.231Z,14.07
2019-05-21T05:23:15.610Z,13.37
2019-05-21T05:25:44.998Z,13.97
2019-05-21T05:28:14.385Z,13.47
2019-05-21T05:30:43.950Z,13.60
2019-05-21T05:33:13.330Z,11.60
2019-05-21T05:35:42.867Z,12.73
2019-05-21T05:38:12.247Z,12.20
2019-05-21T05:40:41.631Z,13.50
2019-05-21T05:43:11.013Z,14.07
2019-05-21T05:45:40.450Z,12.73
2019-05-21T05:48:09.838Z,12.20
2019-05-21T05:50:49.867Z,11.00
2019-05-21T05:53:19.230Z,13.60
2019-05-21T05:55:48.605Z,13.33
2019-05-21T05:58:18.115Z,13.43
2019-05-21T06:00:47.496Z,14.47
2019-05-21T06:03:16.879Z,12.63
2019-05-21T06:05:46.284Z,13.17
2019-05-21T06:08:15.686Z,14.13
2019-05-21T06:10:45.081Z,13.47
2019-05-21T06:13:14.502Z,12.47
2019-05-21T06:15:43.888Z,12.93
2019-05-21T06:18:13.274Z,13.27
2019-05-21T06:20:42.672Z,12.73
2019-05-21T06:23:12.039Z,12.63
2019-05-21T06:25:41.423Z,13.23
2019-05-21T06:28:10.901Z,12.40
2019-05-21T06:30:40.267Z,13.03
2019-05-21T06:33:09.653Z,13.90
2019-05-21T06:35:39.036Z,12.20
2019-05-21T06:38:17.088Z,11.97
2019-05-21T06:40:39.527Z,11.90
2019-05-21T06:43:09.727Z,13.00
2019-05-21T06:45:39.279Z,13.97
2019-05-21T06:48:08.733Z,13.70
2019-05-21T06:50:38.303Z,12.90
2019-05-21T06:53:07.680Z,13.07
2019-05-21T06:55:37.057Z,13.13
2019-05-21T06:58:06.453Z,13.10
2019-05-21T07:00:35.840Z,12.37
2019-05-21T07:03:05.404Z,13.97
2019-05-21T07:05:35.133Z,11.53
2019-05-21T07:08:04.793Z,12.23
2019-05-21T07:10:34.173Z,12.47
2019-05-21T07:13:03.554Z,10.67
2019-05-21T07:15:32.949Z,12.33
2019-05-21T07:18:02.324Z,10.63
2019-05-21T07:20:31.703Z,10.80
2019-05-21T07:23:01.248Z,11.27
2019-05-21T07:25:30.749Z,9.93
2019-05-21T07:28:00.137Z,10.73
2019-05-21T07:30:29.513Z,9.60
2019-05-21T07:32:59.051Z,9.63
2019-05-21T07:35:28.387Z,9.17
2019-05-21T07:37:57.818Z,8.50
2019-05-21T07:40:27.140Z,9.13
2019-05-21T07:42:56.517Z,8.93
2019-05-21T07:45:25.900Z,9.27
2019-05-21T07:47:55.281Z,7.43
2019-05-21T07:50:24.669Z,8.80
2019-05-21T07:52:54.048Z,8.40
2019-05-21T07:55:23.442Z,7.37
2019-05-21T07:57:52.830Z,8.33
2019-05-21T08:00:22.918Z,7.97
2019-05-21T08:02:52.293Z,9.10
2019-05-21T08:05:21.676Z,9.23
2019-05-21T08:07:51.067Z,10.37
2019-05-21T08:10:20.463Z,10.17
2019-05-21T08:12:49.830Z,9.50
2019-05-21T08:15:19.210Z,10.10
2019-05-21T08:17:48.587Z,9.67
2019-05-21T08:20:19.180Z,8.50
2019-05-21T08:22:48.731Z,10.00
2019-05-21T08:25:18.116Z,10.87
2019-05-21T08:27:47.506Z,10.83
2019-05-21T08:30:17.508Z,9.83
2019-05-21T08:32:46.866Z,11.93
2019-05-21T08:35:16.326Z,10.57
2019-05-21T08:37:45.765Z,10.43
2019-05-21T08:40:15.780Z,10.10
2019-05-21T08:42:45.165Z,9.47
2019-05-21T08:45:15.463Z,9.50
2019-05-21T08:47:44.825Z,9.47
2019-05-21T08:50:14.813Z,8.83
2019-05-21T08:52:44.207Z,9.93
2019-05-21T08:55:13.690Z,9.50
2019-05-21T08:57:43.091Z,10.83
2019-05-21T09:00:16.427Z,9.20
2019-05-21T09:02:45.870Z,8.40
2019-05-21T09:05:15.592Z,9.57
2019-05-21T09:07:45.101Z,9.73
2019-05-21T09:10:15.207Z,9.00
2019-05-21T09:12:45.932Z,10.43
2019-05-21T09:15:17.323Z,10.43
2019-05-21T09:17:46.778Z,10.77
2019-05-21T09:20:18.406Z,11.67
2019-05-21T09:22:47.793Z,11.73
2019-05-21T09:25:17.686Z,11.57
2019-05-21T09:27:47.075Z,10.77
2019-05-21T09:30:19.764Z,12.37
2019-05-21T09:32:49.118Z,9.90
2019-05-21T09:35:18.669Z,10.73
2019-05-21T09:37:48.111Z,9.57
2019-05-21T09:40:19.782Z,8.50
2019-05-21T09:42:49.169Z,8.23
2019-05-21T09:45:18.880Z,7.67
2019-05-21T09:47:48.284Z,8.03
2019-05-21T09:50:19.050Z,7.67
2019-05-21T09:52:48.665Z,7.30
2019-05-21T09:55:18.448Z,7.67
2019-05-21T09:57:55.608Z,7.53
2019-05-21T10:00:33.808Z,6.63
2019-05-21T10:03:11.672Z,6.50
2019-05-21T10:05:41.048Z,6.67
2019-05-21T10:08:10.698Z,7.40
2019-05-21T10:10:40.253Z,7.13
2019-05-21T10:13:09.638Z,7.43
2019-05-21T10:15:39.051Z,8.73
2019-05-21T10:18:08.418Z,8.93
2019-05-21T10:20:38.768Z,8.37
2019-05-21T10:23:08.154Z,9.10
2019-05-21T10:25:37.551Z,9.30
2019-05-21T10:28:06.931Z,9.07
2019-05-21T10:30:36.482Z,8.47
2019-05-21T10:33:05.862Z,8.97
2019-05-21T10:35:35.241Z,8.87
2019-05-21T10:38:04.818Z,8.03
2019-05-21T10:40:34.217Z,7.97
2019-05-21T10:43:03.591Z,7.70
2019-05-21T10:45:32.965Z,7.90
2019-05-21T10:48:02.343Z,8.03
2019-05-21T10:50:31.730Z,7.07
2019-05-21T10:53:01.114Z,6.93
2019-05-21T10:55:30.487Z,6.97
2019-05-21T10:58:00.137Z,8.17
2019-05-21T11:00:30.288Z,6.70
2019-05-21T11:03:01.317Z,7.90
2019-05-21T11:05:32.339Z,6.33
2019-05-21T11:08:22.964Z,7.83
2019-05-21T11:10:32.821Z,7.80
2019-05-21T11:13:02.276Z,7.90
2019-05-21T11:15:31.739Z,6.87
2019-05-21T11:18:10.765Z,7.57
2019-05-21T11:20:32.218Z,8.50
2019-05-21T11:23:01.600Z,7.40
2019-05-21T11:25:31.002Z,7.53
2019-05-21T11:28:00.360Z,6.90
2019-05-21T11:30:29.798Z,6.53
2019-05-21T11:32:59.181Z,6.07
2019-05-21T11:35:28.557Z,5.93
2019-05-21T11:38:00.581Z,6.50
2019-05-21T11:40:30.665Z,6.57
2019-05-21T11:43:00.062Z,5.97
2019-05-21T11:45:32.796Z,7.70
2019-05-21T11:48:00.548Z,7.30
2019-05-21T11:50:29.928Z,7.30
2019-05-21T11:52:59.308Z,6.53
2019-05-21T11:55:28.686Z,7.70
2019-05-21T11:57:58.095Z,7.53
2019-05-21T12:00:28.928Z,7.47
2019-05-21T12:02:58.359Z,7.53
2019-05-21T12:05:27.725Z,6.70
2019-05-21T12:07:57.076Z,7.10
2019-05-21T12:10:26.448Z,7.17
2019-05-21T12:12:55.837Z,6.33
2019-05-21T12:15:25.213Z,6.60
2019-05-21T12:17:54.604Z,6.63
2019-05-21T12:20:36.048Z,6.07
2019-05-21T12:22:55.580Z,6.20
2019-05-21T12:25:24.957Z,6.33
2019-05-21T12:27:54.343Z,5.37
2019-05-21T12:30:24.852Z,6.43
2019-05-21T12:32:54.491Z,8.83
2019-05-21T12:35:23.873Z,11.83
2019-05-21T12:37:53.253Z,11.37
2019-05-21T12:40:23.040Z,9.10
2019-05-21T12:42:52.422Z,8.60
2019-05-21T12:45:21.811Z,8.50
2019-05-21T12:47:51.240Z,7.67
2019-05-21T12:50:21.018Z,6.33
2019-05-21T12:52:50.401Z,8.20
2019-05-21T12:55:19.766Z,8.10
2019-05-21T12:57:49.151Z,10.70
2019-05-21T13:00:19.646Z,12.33
2019-05-21T13:02:49.030Z,10.97
2019-05-21T13:05:18.483Z,10.97
2019-05-21T13:07:47.856Z,9.67
2019-05-21T13:10:17.483Z,9.83
2019-05-21T13:12:46.930Z,12.57
2019-05-21T13:15:16.622Z,11.17
2019-05-21T13:17:45.998Z,10.57
2019-05-21T13:20:17.163Z,11.93
2019-05-21T13:22:46.551Z,12.80
2019-05-21T13:25:16.004Z,13.90
2019-05-21T13:27:45.390Z,13.53
2019-05-21T13:30:15.279Z,12.43
2019-05-21T13:32:44.664Z,12.00
2019-05-21T13:35:14.784Z,11.70
2019-05-21T13:37:44.163Z,11.87
2019-05-21T13:40:15.717Z,9.67
2019-05-21T13:42:45.093Z,10.63
2019-05-21T13:45:15.553Z,10.10
2019-05-21T13:47:44.933Z,12.10
2019-05-21T13:50:15.022Z,8.90
2019-05-21T13:52:44.418Z,8.90
2019-05-21T13:55:14.335Z,7.90
2019-05-21T13:57:43.723Z,10.43
2019-05-21T14:00:18.485Z,8.60
2019-05-21T14:02:48.033Z,8.37
2019-05-21T14:05:17.952Z,9.97
2019-05-21T14:07:47.328Z,9.20
2019-05-21T14:10:20.694Z,9.07
2019-05-21T14:12:48.317Z,9.60
2019-05-21T14:15:18.066Z,10.33
2019-05-21T14:17:47.445Z,9.40
2019-05-21T14:20:17.337Z,10.07
2019-05-21T14:22:46.715Z,12.67
2019-05-21T14:25:16.165Z,11.80
2019-05-21T14:27:45.541Z,9.70
2019-05-21T14:30:15.730Z,10.90
2019-05-21T14:32:45.268Z,10.00
2019-05-21T14:35:14.856Z,10.27
2019-05-21T14:37:44.231Z,9.67
2019-05-21T14:40:30.375Z,11.33
2019-05-21T14:42:59.303Z,12.07
2019-05-21T14:45:17.513Z,10.57
2019-05-21T14:47:46.887Z,10.87
2019-05-21T14:50:17.881Z,11.03
2019-05-21T14:52:51.958Z,10.57
2019-05-21T14:55:18.805Z,13.60
2019-05-21T14:57:48.284Z,11.90
2019-05-21T15:00:32.683Z,12.47
2019-05-21T15:03:02.076Z,10.83
2019-05-21T15:05:31.899Z,10.87
2019-05-21T15:08:01.277Z,12.70
2019-05-21T15:10:46.838Z,10.60
2019-05-21T15:13:05.668Z,10.50
2019-05-21T15:15:33.486Z,9.73
2019-05-21T15:18:02.980Z,12.13
2019-05-21T15:20:39.730Z,10.27
2019-05-21T15:23:09.125Z,10.97
2019-05-21T15:25:38.495Z,11.40
2019-05-21T15:28:07.957Z,12.93
2019-05-21T15:30:37.411Z,11.33
2019-05-21T15:33:07.158Z,14.03
2019-05-21T15:35:36.645Z,14.43
2019-05-21T15:38:06.101Z,13.70
2019-05-21T15:40:35.488Z,15.30
2019-05-21T15:43:05.190Z,14.53
2019-05-21T15:45:34.646Z,15.43
2019-05-21T15:48:04.098Z,17.97
2019-05-21T15:50:33.478Z,13.40
2019-05-21T15:53:03.164Z,12.33
2019-05-21T15:55:32.564Z,12.57
2019-05-21T15:58:01.945Z,13.33
2019-05-21T16:00:31.671Z,12.00
2019-05-21T16:03:01.055Z,14.20
2019-05-21T16:05:30.509Z,12.67
2019-05-21T16:07:59.910Z,12.67
2019-05-21T16:10:29.286Z,11.70
2019-05-21T16:12:58.670Z,11.27
2019-05-21T16:15:28.265Z,12.23
2019-05-21T16:17:57.951Z,13.97
2019-05-21T16:20:29.866Z,13.47
2019-05-21T16:22:59.249Z,14.20
2019-05-21T16:25:28.931Z,13.40
2019-05-21T16:27:58.316Z,13.00
2019-05-21T16:30:27.719Z,12.00
2019-05-21T16:32:57.732Z,12.03
2019-05-21T16:35:27.366Z,13.47
2019-05-21T16:37:56.737Z,14.07
2019-05-21T16:40:26.123Z,13.70
2019-05-21T16:42:55.505Z,11.17
2019-05-21T16:45:25.059Z,12.17
2019-05-21T16:47:55.007Z,11.00
2019-05-21T16:50:24.536Z,10.47
2019-05-21T16:52:54.176Z,10.73
2019-05-21T16:55:23.584Z,10.90
2019-05-21T16:57:56.116Z,11.07
2019-05-21T17:00:24.621Z,11.17
2019-05-21T17:02:53.998Z,12.57
2019-05-21T17:05:23.383Z,11.53
2019-05-21T17:07:52.762Z,12.17
2019-05-21T17:10:22.141Z,10.90
2019-05-21T17:12:51.521Z,12.47
2019-05-21T17:15:20.973Z,11.40
2019-05-21T17:17:50.353Z,13.50
2019-05-21T17:20:19.802Z,13.30
2019-05-21T17:22:49.182Z,11.97
2019-05-21T17:25:18.742Z,14.63
2019-05-21T17:27:48.121Z,12.50
2019-05-21T17:30:17.810Z,14.50
2019-05-21T17:32:47.191Z,14.53
2019-05-21T17:35:17.092Z,12.83
2019-05-21T17:37:47.242Z,14.23
2019-05-21T17:40:16.806Z,14.10
2019-05-21T17:42:46.447Z,13.23
2019-05-21T17:45:15.927Z,14.20
2019-05-21T17:47:45.280Z,13.60
2019-05-21T17:50:15.469Z,14.53
2019-05-21T17:52:44.857Z,15.60
2019-05-21T17:55:15.061Z,13.73
2019-05-21T17:57:45.230Z,16.07
2019-05-21T18:00:17.549Z,13.93
2019-05-21T18:02:47.475Z,15.30
2019-05-21T18:05:17.264Z,16.77
2019-05-21T18:07:46.645Z,14.17
2019-05-21T18:10:17.079Z,20.20
2019-05-21T18:12:46.621Z,16.63
2019-05-21T18:15:18.024Z,13.80
2019-05-21T18:17:47.974Z,15.77
2019-05-21T18:20:19.166Z,14.90
2019-05-21T18:22:50.257Z,14.00
2019-05-21T18:25:20.045Z,16.77
2019-05-21T18:27:49.590Z,16.57
2019-05-21T18:30:19.380Z,17.03
2019-05-21T18:32:49.801Z,16.67
2019-05-21T18:35:19.354Z,16.47
2019-05-21T18:37:49.109Z,17.27
2019-05-21T18:40:18.876Z,17.47
2019-05-21T18:42:48.410Z,16.80
2019-05-21T18:45:18.026Z,16.10
2019-05-21T18:47:47.411Z,15.97
2019-05-21T18:50:17.497Z,15.43
2019-05-21T18:52:49.658Z,15.73
2019-05-21T18:55:18.070Z,17.13
2019-05-21T18:57:47.481Z,15.27
2019-05-21T19:00:17.287Z,16.37
2019-05-21T19:02:47.180Z,16.17
2019-05-21T19:05:16.726Z,14.83
2019-05-21T19:07:46.127Z,17.37
2019-05-21T19:10:15.919Z,15.40
2019-05-21T19:12:45.300Z,13.57
2019-05-21T19:15:15.125Z,15.30
2019-05-21T19:17:44.578Z,14.10
2019-05-21T19:20:15.277Z,15.60
2019-05-21T19:22:45.109Z,13.23
2019-05-21T19:25:14.910Z,14.23
2019-05-21T19:27:44.468Z,12.87
2019-05-21T19:30:14.855Z,12.63
2019-05-21T19:32:44.240Z,11.87
2019-05-21T19:35:14.130Z,13.67
2019-05-21T19:37:43.522Z,13.37
2019-05-21T19:40:13.809Z,13.90
2019-05-21T19:42:54.395Z,13.10
2019-05-21T19:45:15.093Z,13.37
2019-05-21T19:47:44.457Z,14.00
2019-05-21T19:50:15.052Z,16.30
2019-05-21T19:52:44.508Z,15.93
2019-05-21T19:55:15.876Z,15.27
2019-05-21T19:57:45.321Z,15.37
2019-05-21T20:00:19.450Z,14.73
2019-05-21T20:02:49.004Z,15.47
2019-05-21T20:05:18.395Z,16.40
2019-05-21T20:07:47.773Z,17.17
2019-05-21T20:10:18.794Z,15.03
2019-05-21T20:12:51.004Z,15.67
2019-05-21T20:15:20.721Z,16.37
2019-05-21T20:18:06.200Z,17.77
2019-05-21T20:20:26.224Z,16.70
2019-05-21T20:22:57.249Z,18.53
2019-05-21T20:25:28.235Z,16.10
2019-05-21T20:27:58.153Z,17.20
2019-05-21T20:30:27.872Z,16.47
2019-05-21T20:32:57.598Z,17.10
2019-05-21T20:35:27.609Z,15.13
2019-05-21T20:37:57.340Z,15.10
2019-05-21T20:40:27.425Z,14.33
2019-05-21T20:42:57.034Z,15.80
2019-05-21T20:45:27.908Z,15.97
2019-05-21T20:47:58.595Z,15.27
2019-05-21T20:50:28.050Z,15.30
2019-05-21T20:52:57.780Z,14.47
2019-05-21T20:55:27.605Z,13.97
2019-05-21T20:57:57.050Z,14.90
2019-05-21T21:00:31.610Z,13.47
2019-05-21T21:03:01.679Z,12.90
2019-05-21T21:05:31.693Z,13.73
2019-05-21T21:08:01.161Z,12.87
2019-05-21T21:10:30.617Z,11.97
2019-05-21T21:13:00.941Z,10.93
2019-05-21T21:15:31.433Z,11.93
2019-05-21T21:18:01.586Z,10.53
2019-05-21T21:20:31.734Z,10.67
2019-05-21T21:23:01.552Z,10.77
2019-05-21T21:25:31.948Z,10.23
2019-05-21T21:28:01.638Z,10.87
2019-05-21T21:30:32.801Z,9.10
2019-05-21T21:33:03.990Z,9.90
2019-05-21T21:35:34.208Z,9.27
2019-05-21T21:38:05.064Z,9.77
2019-05-21T21:40:34.932Z,10.30
2019-05-21T21:43:07.817Z,10.03
2019-05-21T21:45:37.474Z,9.13
2019-05-21T21:48:07.896Z,9.97
2019-05-21T21:50:38.474Z,9.17
2019-05-21T21:53:08.225Z,9.27
2019-05-21T21:55:37.645Z,11.03
2019-05-21T21:58:07.031Z,9.53
2019-05-21T22:01:00.588Z,10.47
2019-05-21T22:03:34.454Z,11.57
2019-05-21T22:06:08.916Z,10.30
2019-05-21T22:08:38.827Z,9.57
2019-05-21T22:11:09.324Z,10.63
2019-05-21T22:13:39.021Z,10.53
2019-05-21T22:16:09.081Z,10.97
2019-05-21T22:18:38.635Z,11.00
2019-05-21T22:21:08.262Z,11.07
2019-05-21T22:23:37.986Z,11.43
2019-05-21T22:26:07.371Z,10.27
2019-05-21T22:28:36.822Z,10.17
2019-05-21T22:31:06.281Z,9.73
2019-05-21T22:33:36.155Z,9.07
2019-05-21T22:36:06.668Z,8.60
2019-05-21T22:38:36.046Z,8.73
2019-05-21T22:41:05.429Z,9.00
2019-05-21T22:43:35.138Z,8.07
2019-05-21T22:46:05.011Z,8.60
2019-05-21T22:48:34.462Z,7.77
2019-05-21T22:51:04.082Z,7.80
2019-05-21T22:53:33.549Z,6.43
2019-05-21T22:56:03.006Z,7.00
2019-05-21T22:58:32.452Z,7.17
2019-05-21T23:01:02.792Z,8.57
2019-05-21T23:03:32.173Z,7.33
2019-05-21T23:06:01.556Z,7.23
2019-05-21T23:08:31.111Z,6.40
2019-05-21T23:11:00.658Z,6.70
2019-05-21T23:13:30.044Z,7.23
2019-05-21T23:16:00.553Z,6.77
2019-05-21T23:18:29.938Z,6.87
2019-05-21T23:21:00.315Z,5.80
2019-05-21T23:23:31.219Z,6.23
2019-05-21T23:26:01.264Z,5.97
2019-05-21T23:28:30.891Z,5.77
2019-05-21T23:31:02.013Z,5.33
2019-05-21T23:33:32.322Z,5.80
2019-05-21T23:36:02.277Z,5.40
2019-05-21T23:38:32.380Z,4.90
2019-05-21T23:41:04.634Z,5.00
2019-05-21T23:43:35.063Z,5.20
2019-05-21T23:46:05.524Z,5.07
2019-05-21T23:48:35.934Z,4.97
2019-05-21T23:51:05.315Z,5.70
2019-05-21T23:53:34.878Z,4.63
2019-05-21T23:56:04.474Z,5.80
2019-05-21T23:58:34.292Z,5.10
